Time;durP1;ratioP1;P1;durP2;ratioP2;P2;SDS_P1;SDS_P2;PMS_P1;PMS_P2;Temp;Humidity;BMP_temperature;BMP_pressure;BME280_temperature;BME280_humidity;BME280_pressure;Samples;Min_cycle;Max_cycle;Signal;HPM_P1;HPM_P2
2023/11/12 00:02:54;;;;;;;17.92;12.73;;;18.20;90.40;;;;;;10545361;28;20076;-31
2023/11/12 00:07:56;;;;;;;17.63;10.60;;;18.20;90.40;;;;;;10531806;28;20032;-40
2023/11/12 00:12:59;;;;;;;12.97;10.97;;;18.20;90.40;;;;;;10539167;28;20481;-31
2023/11/12 00:18:01;;;;;;;17.48;10.50;;;18.20;90.30;;;;;;10541528;28;20040;-42
2023/11/12 00:23:03;;;;;;;17.40;10.53;;;18.20;90.30;;;;;;10537989;28;20085;-36
2023/11/12 00:28:06;;;;;;;15.85;10.45;;;18.10;90.20;;;;;;10536674;28;21001;-41
2023/11/12 00:33:08;;;;;;;12.32;9.57;;;18.10;90.20;;;;;;10554811;28;20131;-31
2023/11/12 00:38:10;;;;;;;14.27;9.75;;;18.10;90.10;;;;;;10546372;28;20071;-31
2023/11/12 00:43:13;;;;;;;14.10;10.35;;;18.10;90.20;;;;;;10538090;28;20404;-34
2023/11/12 00:48:16;;;;;;;20.33;10.93;;;18.10;90.10;;;;;;10543862;28;20047;-31
2023/11/12 00:53:18;;;;;;;11.25;9.27;;;18.00;90.20;;;;;;10552597;28;20032;-37
2023/11/12 00:58:21;;;;;;;13.70;10.53;;;17.90;90.40;;;;;;10541832;28;20663;-29
2023/11/12 01:03:28;;;;;;;12.43;9.52;;;18.00;90.20;;;;;;10547429;28;20051;-38
2023/11/12 01:08:30;;;;;;;13.73;10.07;;;18.00;90.10;;;;;;10559214;28;20039;-34
2023/11/12 01:13:34;;;;;;;13.07;10.55;;;18.00;90.00;;;;;;10538661;28;20049;-33
2023/11/12 01:18:40;;;;;;;13.15;8.73;;;18.00;90.00;;;;;;10545628;28;20046;-35
2023/11/12 01:23:42;;;;;;;10.85;8.10;;;18.00;89.90;;;;;;10544055;28;20066;-40
2023/11/12 01:28:45;;;;;;;13.85;10.00;;;18.00;89.80;;;;;;10539643;28;20071;-32
2023/11/12 01:33:47;;;;;;;9.88;7.15;;;17.90;90.00;;;;;;10547578;28;20096;-31
2023/11/12 01:38:49;;;;;;;11.27;4.28;;;16.20;92.20;;;;;;10543677;28;20039;-38
2023/11/12 01:43:52;;;;;;;12.10;8.27;;;15.30;96.10;;;;;;10534719;28;21682;-30
2023/11/12 01:48:55;;;;;;;11.60;9.32;;;17.00;93.10;;;;;;10545334;28;20071;-32
2023/11/12 01:53:58;;;;;;;14.88;9.77;;;17.50;91.70;;;;;;10549796;28;20097;-34
2023/11/12 01:59:01;;;;;;;13.60;9.48;;;17.50;91.40;;;;;;10539548;28;20542;-31
2023/11/12 02:04:05;;;;;;;13.30;10.02;;;17.60;91.00;;;;;;10552082;28;20484;-34
2023/11/12 02:09:06;;;;;;;11.77;8.98;;;17.70;90.60;;;;;;10551674;28;20051;-38
2023/11/12 02:14:10;;;;;;;11.77;8.87;;;17.90;90.30;;;;;;10528927;28;20047;-31
2023/11/12 02:19:23;;;;;;;11.40;8.82;;;17.90;90.00;;;;;;10547128;28;20044;-37
2023/11/12 02:24:26;;;;;;;8.68;7.10;;;17.90;89.90;;;;;;10540987;28;20837;-41
2023/11/12 02:29:28;;;;;;;10.57;7.30;;;17.90;89.80;;;;;;10529308;28;20130;-33
2023/11/12 02:34:30;;;;;;;9.23;7.40;;;17.80;90.00;;;;;;10552668;28;20390;-31
2023/11/12 02:39:33;;;;;;;8.10;5.43;;;17.70;90.20;;;;;;10549084;28;20046;-35
2023/11/12 02:44:36;;;;;;;9.23;7.05;;;17.40;90.20;;;;;;10530432;28;20454;-31
2023/11/12 02:50:05;;;;;;;9.55;6.68;;;16.60;93.10;;;;;;10547883;28;20089;-33
2023/11/12 02:55:09;;;;;;;8.52;7.00;;;17.30;91.20;;;;;;10548561;28;20046;-51
2023/11/12 03:00:12;;;;;;;6.80;5.78;;;17.50;90.60;;;;;;10538563;28;20071;-34
2023/11/12 03:05:14;;;;;;;8.13;6.97;;;17.70;90.20;;;;;;10545739;28;20039;-34
2023/11/12 03:10:17;;;;;;;7.82;7.00;;;17.70;89.70;;;;;;10551719;28;20081;-34
2023/11/12 03:15:19;;;;;;;9.25;6.53;;;17.70;89.70;;;;;;10530552;28;20051;-32
2023/11/12 03:20:23;;;;;;;7.72;5.60;;;17.60;89.90;;;;;;10550025;28;20052;-33
2023/11/12 03:25:26;;;;;;;7.50;6.00;;;17.50;89.60;;;;;;10546299;28;20142;-44
2023/11/12 03:30:28;;;;;;;7.28;6.03;;;17.70;89.70;;;;;;10541858;28;20140;-35
2023/11/12 03:35:30;;;;;;;6.57;5.90;;;17.50;90.30;;;;;;10537260;28;20558;-31
2023/11/12 03:40:33;;;;;;;7.37;5.43;;;17.20;90.80;;;;;;10543472;28;20043;-46
2023/11/12 03:45:34;;;;;;;8.23;4.90;;;17.40;90.20;;;;;;10541974;28;20063;-39
2023/11/12 03:50:36;;;;;;;6.13;5.43;;;17.00;90.60;;;;;;10537577;28;20067;-32
2023/11/12 03:55:39;;;;;;;7.43;5.47;;;17.10;90.90;;;;;;10548344;28;20134;-38
2023/11/12 04:15:29;;;;;;;6.18;4.68;;;17.50;89.30;;;;;;10507661;27;1310038;-42
2023/11/12 04:20:32;;;;;;;6.25;4.57;;;17.70;88.70;;;;;;10560361;28;20044;-34
2023/11/12 04:25:34;;;;;;;4.60;4.10;;;17.70;88.50;;;;;;10557008;28;20039;-31
2023/11/12 04:30:37;;;;;;;4.50;4.10;;;17.80;88.90;;;;;;10559112;28;20127;-34
2023/11/12 04:35:39;;;;;;;5.25;3.75;;;17.80;88.20;;;;;;10559318;28;20078;-45
2023/11/12 04:40:41;;;;;;;4.35;3.72;;;17.80;88.00;;;;;;10559962;28;20043;-35
2023/11/12 04:45:44;;;;;;;6.63;4.47;;;17.80;87.90;;;;;;10553812;28;20174;-36
2023/11/12 04:50:46;;;;;;;5.32;3.70;;;17.80;87.70;;;;;;10558071;28;20139;-34
2023/11/12 04:55:48;;;;;;;5.97;3.53;;;17.80;87.50;;;;;;10561043;28;20090;-32
2023/11/12 05:00:52;;;;;;;4.40;3.80;;;17.80;87.30;;;;;;10557981;28;20047;-32
2023/11/12 05:05:54;;;;;;;4.25;3.45;;;17.80;87.30;;;;;;10556576;28;20044;-33
2023/11/12 05:10:56;;;;;;;4.10;3.10;;;17.80;87.10;;;;;;10555041;28;20557;-35
2023/11/12 05:15:59;;;;;;;3.20;2.87;;;17.80;87.20;;;;;;10561473;28;20051;-31
2023/11/12 05:21:01;;;;;;;4.00;3.28;;;17.80;86.90;;;;;;10558267;28;20101;-32
2023/11/12 05:26:03;;;;;;;4.23;3.17;;;17.80;86.90;;;;;;10534440;28;20039;-37
2023/11/12 05:31:06;;;;;;;3.03;2.67;;;17.80;86.90;;;;;;10532843;28;20051;-37
2023/11/12 05:36:08;;;;;;;3.58;3.28;;;17.80;86.80;;;;;;10526613;28;20032;-32
2023/11/12 05:41:10;;;;;;;3.13;2.65;;;17.80;86.70;;;;;;10527241;28;20052;-32
2023/11/12 05:46:14;;;;;;;2.90;2.43;;;17.90;87.20;;;;;;10532268;28;20126;-44
2023/11/12 05:51:15;;;;;;;2.58;2.22;;;17.90;86.80;;;;;;10523505;28;20044;-32
2023/11/12 05:56:18;;;;;;;2.60;2.20;;;17.90;86.80;;;;;;10525329;28;20044;-34
2023/11/12 06:01:21;;;;;;;2.17;1.88;;;18.00;86.90;;;;;;10526651;28;20059;-31
2023/11/12 06:06:23;;;;;;;2.20;1.77;;;18.00;86.90;;;;;;10530380;28;20044;-38
2023/11/12 06:11:25;;;;;;;2.25;1.80;;;18.00;86.80;;;;;;10529408;28;20075;-31
2023/11/12 06:16:28;;;;;;;1.40;1.30;;;18.00;86.80;;;;;;10526736;28;20051;-31
2023/11/12 06:21:30;;;;;;;1.75;1.58;;;18.00;86.80;;;;;;10529844;28;20465;-37
2023/11/12 06:26:31;;;;;;;1.77;1.40;;;18.00;86.80;;;;;;10524212;28;20146;-31
2023/11/12 06:31:35;;;;;;;2.17;1.85;;;18.10;86.80;;;;;;10525867;28;20129;-32
2023/11/12 06:36:37;;;;;;;2.47;1.73;;;18.00;86.90;;;;;;10526401;28;20401;-36
2023/11/12 06:41:39;;;;;;;1.40;1.10;;;18.10;86.80;;;;;;10525764;28;20036;-39
2023/11/12 06:46:45;;;;;;;1.47;1.37;;;18.00;86.90;;;;;;10527301;28;20056;-33
2023/11/12 06:51:47;;;;;;;1.75;1.40;;;18.10;86.90;;;;;;10525592;28;20056;-35
2023/11/12 06:56:49;;;;;;;2.20;1.80;;;18.00;86.90;;;;;;10523612;28;20067;-36
2023/11/12 07:01:52;;;;;;;1.65;1.10;;;18.00;86.90;;;;;;10507898;28;20478;-34
2023/11/12 07:06:54;;;;;;;1.95;1.20;;;18.10;86.90;;;;;;10525387;28;20039;-32
2023/11/12 07:11:56;;;;;;;1.10;1.00;;;18.10;86.80;;;;;;10524345;28;20481;-32
2023/11/12 07:16:59;;;;;;;1.53;1.23;;;18.00;86.80;;;;;;10523228;28;20040;-33
2023/11/12 07:22:01;;;;;;;1.38;1.27;;;18.00;86.60;;;;;;10526796;28;20036;-34
2023/11/12 07:27:03;;;;;;;1.53;1.43;;;18.00;86.60;;;;;;10524761;28;20097;-37
2023/11/12 07:32:07;;;;;;;2.28;2.08;;;17.90;86.60;;;;;;10520965;28;20509;-32
2023/11/12 07:37:09;;;;;;;1.65;1.55;;;17.90;86.40;;;;;;10521707;28;20093;-31
2023/11/12 07:42:10;;;;;;;1.90;1.63;;;17.90;86.20;;;;;;10524896;28;20048;-34
2023/11/12 07:47:13;;;;;;;2.53;1.83;;;17.90;86.20;;;;;;10522100;28;20086;-34
2023/11/12 07:52:15;;;;;;;2.85;1.70;;;17.90;85.90;;;;;;10519776;28;20082;-41
2023/11/12 07:57:18;;;;;;;1.50;1.40;;;17.90;85.80;;;;;;10521848;28;20466;-37
2023/11/12 08:02:22;;;;;;;;;;;17.90;85.80;;;;;;10523303;28;20465;-33
2023/11/12 08:07:24;;;;;;;1.73;1.63;;;17.90;85.60;;;;;;10521364;28;20016;-35
2023/11/12 08:12:26;;;;;;;2.20;1.67;;;17.90;85.70;;;;;;10523623;28;20139;-39
2023/11/12 08:17:30;;;;;;;2.23;1.50;;;17.90;85.70;;;;;;10526246;28;20104;-40
2023/11/12 08:22:32;;;;;;;3.42;1.70;;;17.90;85.60;;;;;;10520824;28;20089;-40
2023/11/12 08:27:34;;;;;;;2.35;1.42;;;17.90;85.60;;;;;;10517744;28;20046;-44
2023/11/12 08:32:38;;;;;;;2.13;1.50;;;17.90;85.30;;;;;;10519007;28;20043;-38
2023/11/12 08:37:41;;;;;;;1.70;1.45;;;17.80;85.50;;;;;;10518999;28;20055;-39
2023/11/12 08:42:42;;;;;;;1.88;1.45;;;17.90;86.00;;;;;;10518286;28;20060;-32
2023/11/12 08:47:46;;;;;;;2.20;1.50;;;17.90;85.50;;;;;;10517983;28;20070;-40
2023/11/12 08:52:48;;;;;;;2.42;1.50;;;17.90;85.60;;;;;;10514934;28;20119;-45
2023/11/12 08:57:49;;;;;;;2.77;1.77;;;17.90;85.30;;;;;;10515856;28;20478;-28
2023/11/12 09:02:53;;;;;;;3.77;1.20;;;17.90;85.00;;;;;;10521203;28;20150;-35
2023/11/12 09:07:54;;;;;;;3.42;2.28;;;17.90;85.30;;;;;;10522395;28;20138;-32
2023/11/12 09:12:56;;;;;;;2.10;1.27;;;17.80;85.40;;;;;;10530545;28;20059;-31
2023/11/12 09:17:59;;;;;;;1.97;1.20;;;18.00;85.40;;;;;;10528033;28;20369;-29
2023/11/12 09:23:01;;;;;;;2.75;1.60;;;18.00;85.30;;;;;;10527531;28;20108;-37
2023/11/12 09:28:03;;;;;;;2.47;1.40;;;18.00;85.40;;;;;;10522102;28;20032;-37
2023/11/12 09:33:09;;;;;;;2.75;1.60;;;18.00;85.50;;;;;;10520681;28;20078;-34
2023/11/12 09:38:11;;;;;;;2.95;1.40;;;18.00;85.50;;;;;;10525332;28;20397;-35
2023/11/12 09:43:13;;;;;;;3.25;1.42;;;18.00;85.40;;;;;;10525906;28;20059;-33
2023/11/12 09:48:30;;;;;;;6.30;1.33;;;18.10;85.70;;;;;;10521937;28;20074;-31
2023/11/12 09:53:33;;;;;;;2.72;1.55;;;18.10;85.60;;;;;;10525412;28;20047;-41
2023/11/12 09:58:36;;;;;;;2.92;1.70;;;18.10;85.70;;;;;;10522780;28;20036;-47
2023/11/12 10:03:39;;;;;;;7.18;3.28;;;18.00;85.30;;;;;;10522271;28;20048;-34
2023/11/12 10:08:41;;;;;;;2.30;1.77;;;17.60;85.00;;;;;;10525832;28;20392;-30
2023/11/12 10:13:43;;;;;;;6.57;3.67;;;17.70;85.50;;;;;;10527809;28;20460;-37
2023/11/12 10:18:46;;;;;;;3.93;2.40;;;17.00;86.50;;;;;;10525083;28;20052;-32
2023/11/12 10:24:05;;;;;;;9.40;6.30;;;16.50;90.70;;;;;;10520656;28;20042;-32
2023/11/12 10:29:22;;;;;;;15.68;9.07;;;15.30;96.60;;;;;;10506742;28;20153;-42
2023/11/12 10:34:28;;;;;;;4.00;2.78;;;15.30;89.40;;;;;;10521064;28;20050;-34
2023/11/12 10:39:43;;;;;;;2.90;2.25;;;16.90;91.50;;;;;;10521608;28;20044;-37
2023/11/12 10:44:47;;;;;;;7.55;4.68;;;17.50;90.20;;;;;;10525088;28;20117;-30
2023/11/12 10:49:51;;;;;;;5.07;3.40;;;17.60;87.20;;;;;;10520047;28;20532;-33
2023/11/12 10:54:56;;;;;;;11.10;5.28;;;17.20;90.00;;;;;;10521472;28;20476;-39
2023/11/12 11:00:00;;;;;;;3.40;2.03;;;16.80;89.20;;;;;;10521746;28;20443;-32
2023/11/12 11:05:04;;;;;;;2.58;1.65;;;18.00;88.80;;;;;;10520847;28;20237;-36
2023/11/12 11:10:08;;;;;;;3.85;1.58;;;17.90;89.50;;;;;;10519998;28;20039;-40
2023/11/12 11:15:41;;;;;;;3.45;1.67;;;18.20;88.40;;;;;;10527918;28;20051;-30
2023/11/12 11:21:12;;;;;;;4.78;1.88;;;18.00;90.40;;;;;;10525997;28;20051;-32
2023/11/12 11:26:32;;;;;;;2.85;1.70;;;18.30;90.10;;;;;;10521982;28;20032;-33
2023/11/12 11:31:35;;;;;;;3.95;1.95;;;18.40;90.20;;;;;;10523114;28;20039;-32
2023/11/12 11:36:39;;;;;;;5.90;1.70;;;18.40;90.30;;;;;;10521547;28;20610;-43
2023/11/12 11:42:11;;;;;;;9.38;5.47;;;17.90;92.00;;;;;;10520208;28;20036;-32
2023/11/12 11:47:16;;;;;;;4.57;2.03;;;17.80;92.00;;;;;;10520009;28;20117;-31
2023/11/12 11:52:21;;;;;;;4.13;2.03;;;18.30;91.00;;;;;;10517904;28;20044;-43
2023/11/12 11:57:26;;;;;;;4.53;2.38;;;18.50;90.70;;;;;;10517739;28;20117;-33
2023/11/12 12:02:28;;;;;;;8.45;3.28;;;18.50;90.60;;;;;;10520404;28;20060;-35
2023/11/12 12:07:31;;;;;;;3.03;2.47;;;18.50;90.60;;;;;;10526698;28;20551;-31
2023/11/12 12:12:37;;;;;;;4.78;2.20;;;18.50;90.50;;;;;;10523146;28;20092;-33
2023/11/12 12:17:40;;;;;;;6.25;2.60;;;18.60;90.40;;;;;;10521056;28;20055;-36
2023/11/12 12:22:44;;;;;;;5.40;2.50;;;18.60;90.10;;;;;;10519245;28;20485;-33
2023/11/12 12:27:52;;;;;;;4.00;2.53;;;18.60;90.00;;;;;;10524794;28;20423;-32
2023/11/12 12:32:54;;;;;;;4.72;2.72;;;18.60;90.00;;;;;;10518935;28;20110;-42
2023/11/12 12:38:06;;;;;;;5.20;3.03;;;18.60;89.90;;;;;;10529395;28;20094;-30
2023/11/12 12:43:10;;;;;;;5.43;2.63;;;18.60;90.00;;;;;;10530106;28;20058;-36
2023/11/12 12:48:14;;;;;;;4.35;2.42;;;18.60;89.90;;;;;;10526068;28;20492;-31
2023/11/12 12:53:21;;;;;;;5.57;2.70;;;18.50;90.20;;;;;;10529029;28;20056;-32
2023/11/12 12:58:36;;;;;;;4.10;2.88;;;18.60;89.90;;;;;;10531683;28;20044;-50
2023/11/12 13:03:41;;;;;;;5.03;3.03;;;18.60;90.00;;;;;;10527797;28;20108;-32
2023/11/12 13:08:44;;;;;;;9.48;3.00;;;18.60;90.00;;;;;;10527010;28;20050;-34
2023/11/12 13:13:46;;;;;;;3.83;2.42;;;18.60;90.00;;;;;;10529473;28;20050;-34
2023/11/12 13:18:48;;;;;;;3.33;2.27;;;18.60;89.90;;;;;;10525696;28;23538;-30
2023/11/12 13:23:52;;;;;;;8.25;2.60;;;18.60;90.00;;;;;;10523312;28;20574;-29
2023/11/12 13:28:54;;;;;;;3.55;2.47;;;18.70;90.00;;;;;;10530564;28;20123;-31
2023/11/12 13:33:56;;;;;;;;;;;18.60;90.00;;;;;;10528437;28;20051;-43
2023/11/12 13:39:00;;;;;;;6.53;2.47;;;18.60;90.10;;;;;;10529627;28;19919;-31
2023/11/12 13:44:01;;;;;;;4.55;2.38;;;18.60;90.10;;;;;;10527973;28;20747;-30
2023/11/12 13:49:05;;;;;;;3.60;2.20;;;18.70;90.10;;;;;;10526245;28;20113;-34
2023/11/12 13:54:10;;;;;;;4.47;2.60;;;18.70;90.10;;;;;;10545722;28;20392;-32
2023/11/12 13:59:15;;;;;;;7.07;2.47;;;18.70;90.10;;;;;;10542886;28;20137;-43
2023/11/12 14:04:18;;;;;;;4.38;2.40;;;18.70;90.20;;;;;;10527616;28;20054;-33
2023/11/12 14:09:21;;;;;;;4.50;2.30;;;18.70;90.20;;;;;;10526969;28;20129;-34
2023/11/12 14:14:24;;;;;;;5.50;2.75;;;18.70;90.10;;;;;;10529491;28;20054;-37
2023/11/12 14:19:27;;;;;;;5.97;2.45;;;18.70;90.10;;;;;;10527317;28;20496;-31
2023/11/12 14:24:30;;;;;;;4.05;2.58;;;18.70;90.20;;;;;;10526705;28;20032;-36
2023/11/12 14:29:32;;;;;;;3.85;2.67;;;18.80;90.50;;;;;;10533906;28;20875;-39
2023/11/12 14:34:34;;;;;;;3.22;2.20;;;18.80;90.50;;;;;;10521021;28;20514;-34
2023/11/12 14:39:37;;;;;;;3.95;2.53;;;18.80;90.50;;;;;;10516306;28;20135;-33
2023/11/12 14:44:39;;;;;;;9.32;3.22;;;18.80;90.40;;;;;;10526330;28;20036;-31
2023/11/12 14:49:41;;;;;;;6.93;2.72;;;18.80;90.30;;;;;;10526992;28;20072;-36
2023/11/12 14:54:44;;;;;;;7.20;2.57;;;18.80;90.30;;;;;;10523110;28;20132;-39
2023/11/12 14:59:47;;;;;;;4.13;2.80;;;18.90;90.10;;;;;;10524388;28;20074;-33
2023/11/12 15:04:49;;;;;;;4.95;2.85;;;18.90;90.10;;;;;;10524385;28;20089;-31
2023/11/12 15:09:52;;;;;;;4.53;3.17;;;18.90;89.80;;;;;;10522344;28;20161;-34
2023/11/12 15:14:54;;;;;;;6.07;3.75;;;18.90;89.80;;;;;;10522401;28;20506;-31
2023/11/12 15:19:57;;;;;;;7.55;3.22;;;18.70;87.90;;;;;;10526457;28;20051;-31
2023/11/12 15:25:00;;;;;;;10.65;4.05;;;18.60;89.90;;;;;;10520656;28;20126;-35
2023/11/12 15:30:02;;;;;;;5.43;3.58;;;18.60;89.70;;;;;;10524896;28;20035;-39
2023/11/12 15:35:05;;;;;;;8.60;3.70;;;18.40;90.30;;;;;;10528124;28;20150;-36
2023/11/12 15:40:17;;;;;;;4.13;2.70;;;18.60;89.70;;;;;;10525456;28;20059;-51
2023/11/12 15:45:23;;;;;;;4.45;3.20;;;18.70;89.20;;;;;;10522523;28;20036;-32
2023/11/12 15:50:29;;;;;;;5.15;2.95;;;18.60;89.40;;;;;;10517587;28;20044;-36
2023/11/12 15:55:33;;;;;;;5.18;3.45;;;18.60;89.20;;;;;;10514973;28;20130;-35
2023/11/12 16:00:34;;;;;;;5.85;3.75;;;18.70;88.90;;;;;;10518586;28;20035;-33
2023/11/12 16:05:37;;;;;;;6.88;2.83;;;18.60;89.60;;;;;;10522706;28;20055;-37
2023/11/12 16:10:41;;;;;;;9.50;4.13;;;18.70;89.10;;;;;;10524990;28;20036;-34
2023/11/12 16:15:43;;;;;;;4.18;2.72;;;18.60;87.60;;;;;;10524387;28;20614;-32
2023/11/12 16:20:45;;;;;;;4.53;2.85;;;18.70;89.30;;;;;;10523705;28;20432;-32
2023/11/12 16:25:49;;;;;;;8.65;2.60;;;18.70;89.50;;;;;;10521940;28;20094;-32
2023/11/12 16:30:50;;;;;;;5.22;2.97;;;18.70;89.50;;;;;;10522392;28;20048;-32
2023/11/12 16:35:52;;;;;;;5.28;2.55;;;18.70;89.60;;;;;;10517746;28;20055;-36
2023/11/12 16:40:56;;;;;;;4.63;2.60;;;18.60;89.80;;;;;;10520093;28;20477;-40
2023/11/12 16:45:58;;;;;;;5.53;3.05;;;18.70;89.90;;;;;;10521362;28;20384;-34
2023/11/12 16:51:00;;;;;;;6.45;3.45;;;18.70;89.80;;;;;;10520061;28;20899;-35
2023/11/12 16:56:03;;;;;;;6.63;3.70;;;18.70;89.70;;;;;;10518721;28;20184;-30
2023/11/12 17:01:05;;;;;;;7.28;3.90;;;18.70;89.70;;;;;;10520377;28;20043;-33
2023/11/12 17:06:07;;;;;;;11.95;5.32;;;18.30;90.00;;;;;;10519840;28;20044;-35
2023/11/12 17:11:11;;;;;;;8.82;4.60;;;18.30;89.80;;;;;;10521375;28;20133;-32
2023/11/12 17:16:12;;;;;;;7.38;3.95;;;18.50;89.50;;;;;;10523203;28;20648;-32
2023/11/12 17:21:14;;;;;;;7.67;3.90;;;18.60;89.20;;;;;;10516202;28;20044;-37
2023/11/12 17:26:17;;;;;;;11.38;4.18;;;18.60;89.20;;;;;;10529130;28;20515;-33
2023/11/12 17:31:19;;;;;;;9.23;4.82;;;18.60;89.20;;;;;;10527694;28;20044;-35
2023/11/12 17:36:22;;;;;;;8.87;5.17;;;18.50;89.10;;;;;;10521954;28;20089;-32
2023/11/12 17:41:25;;;;;;;;;;;18.60;89.10;;;;;;10521832;28;20505;-40
2023/11/12 17:46:27;;;;;;;12.73;5.60;;;18.50;89.30;;;;;;10528995;28;19939;-33
2023/11/12 17:51:28;;;;;;;8.40;5.47;;;18.50;89.20;;;;;;10523978;28;20036;-38
2023/11/12 17:56:31;;;;;;;10.17;5.73;;;18.50;89.30;;;;;;10527294;28;20047;-31
2023/11/12 18:01:33;;;;;;;10.02;5.85;;;18.50;89.30;;;;;;10524494;28;20521;-33
2023/11/12 18:06:35;;;;;;;11.73;5.57;;;18.40;89.30;;;;;;10520489;28;20130;-34
2023/11/12 18:11:38;;;;;;;12.60;6.70;;;18.30;89.00;;;;;;10522167;28;20052;-34
2023/11/12 18:16:44;;;;;;;10.13;5.80;;;18.10;88.90;;;;;;10523331;28;20128;-32
2023/11/12 18:21:46;;;;;;;11.88;5.25;;;18.10;88.80;;;;;;10523388;28;20075;-31
2023/11/12 18:26:49;;;;;;;9.43;5.27;;;18.10;88.40;;;;;;10520355;28;20063;-33
2023/11/12 18:31:54;;;;;;;13.35;5.80;;;18.00;88.40;;;;;;10525212;28;20135;-32
2023/11/12 18:36:56;;;;;;;11.98;5.95;;;18.00;88.10;;;;;;10523632;28;20074;-37
2023/11/12 18:41:59;;;;;;;14.45;6.18;;;18.00;88.00;;;;;;10525243;28;20481;-37
2023/11/12 18:47:03;;;;;;;10.38;6.07;;;17.90;87.60;;;;;;10519874;28;20040;-33
2023/11/12 18:52:05;;;;;;;9.75;5.30;;;17.90;87.50;;;;;;10517989;28;20048;-30
2023/11/12 18:57:08;;;;;;;11.00;5.78;;;18.10;87.90;;;;;;10520184;28;20447;-44
2023/11/12 19:02:10;;;;;;;9.13;5.18;;;18.20;87.90;;;;;;10523609;28;20062;-32
2023/11/12 19:07:14;;;;;;;9.40;5.80;;;18.30;88.30;;;;;;10523068;28;20952;-35
2023/11/12 19:12:17;;;;;;;9.55;5.10;;;18.30;88.30;;;;;;10521454;28;20059;-30
2023/11/12 19:17:21;;;;;;;9.80;5.07;;;18.30;88.40;;;;;;10523021;28;20119;-31
2023/11/12 19:22:22;;;;;;;9.85;5.07;;;18.30;88.70;;;;;;10522427;28;20050;-42
2023/11/12 19:27:26;;;;;;;10.77;5.83;;;18.30;89.00;;;;;;10517013;28;20109;-34
2023/11/12 19:32:28;;;;;;;9.23;5.75;;;18.30;89.00;;;;;;10520041;28;21635;-37
2023/11/12 19:37:32;;;;;;;9.07;4.82;;;18.30;89.20;;;;;;10519937;28;20060;-33
2023/11/12 19:42:35;;;;;;;10.18;5.50;;;18.40;89.40;;;;;;10518535;28;20120;-31
2023/11/12 19:47:37;;;;;;;9.52;5.22;;;18.40;89.50;;;;;;10518533;28;20054;-35
2023/11/12 19:52:39;;;;;;;9.65;5.40;;;18.40;89.50;;;;;;10518531;28;20046;-34
2023/11/12 19:57:42;;;;;;;11.73;5.03;;;18.40;89.70;;;;;;10521914;28;20129;-32
2023/11/12 20:02:44;;;;;;;9.95;4.88;;;18.40;89.80;;;;;;10521113;28;20566;-34
2023/11/12 20:07:45;;;;;;;13.37;5.33;;;18.40;89.70;;;;;;10511389;28;20052;-32
2023/11/12 20:12:49;;;;;;;9.97;4.60;;;18.40;89.80;;;;;;10523270;28;21010;-35
2023/11/12 20:17:50;;;;;;;13.20;5.82;;;18.40;90.10;;;;;;10520096;28;20097;-32
2023/11/12 20:22:53;;;;;;;12.97;6.03;;;18.40;90.20;;;;;;10517602;28;20048;-33
2023/11/12 20:27:57;;;;;;;17.83;7.22;;;18.30;89.70;;;;;;10519449;28;21001;-37
2023/11/12 20:33:00;;;;;;;15.43;6.65;;;18.30;89.60;;;;;;10520473;28;20582;-37
2023/11/12 20:38:04;;;;;;;14.52;7.30;;;18.30;89.50;;;;;;10518021;28;20071;-34
2023/11/12 20:43:10;;;;;;;11.82;6.30;;;18.20;89.40;;;;;;10516542;28;20036;-42
2023/11/12 20:48:14;;;;;;;17.92;7.28;;;18.20;89.30;;;;;;10521187;28;20400;-44
2023/11/12 20:53:16;;;;;;;14.75;7.28;;;18.20;89.40;;;;;;10519050;28;20445;-32
2023/11/12 20:58:21;;;;;;;12.98;6.40;;;18.20;89.30;;;;;;10523869;28;20369;-33
2023/11/12 21:03:23;;;;;;;16.40;7.00;;;18.20;89.30;;;;;;10525444;28;20086;-34
2023/11/12 21:08:24;;;;;;;18.90;8.20;;;18.20;89.30;;;;;;10526909;28;20131;-38
2023/11/12 21:13:27;;;;;;;14.00;7.30;;;18.10;89.30;;;;;;10529302;28;20718;-33
2023/11/12 21:18:29;;;;;;;14.82;6.47;;;18.10;89.10;;;;;;10524798;28;20173;-35
2023/11/12 21:23:32;;;;;;;17.67;7.33;;;18.10;89.10;;;;;;10529307;28;20079;-35
2023/11/12 21:28:35;;;;;;;;;;;18.10;89.00;;;;;;10527199;28;20051;-32
2023/11/12 21:33:36;;;;;;;;;;;18.10;88.90;;;;;;10520505;28;19939;-33
2023/11/12 21:38:39;;;;;;;13.98;7.65;;;18.10;88.90;;;;;;10524186;28;20321;-37
2023/11/12 21:43:42;;;;;;;;;;;18.10;89.00;;;;;;10529954;28;20124;-41
2023/11/12 21:48:45;;;;;;;19.25;7.53;;;18.10;88.90;;;;;;10530933;28;19927;-35
2023/11/12 21:53:48;;;;;;;14.75;6.85;;;18.10;88.90;;;;;;10524119;28;20048;-35
2023/11/12 21:58:51;;;;;;;;;;;18.00;88.90;;;;;;10524500;28;20153;-33
2023/11/12 22:03:52;;;;;;;;;;;18.00;88.80;;;;;;10527394;28;19977;-33
2023/11/12 22:08:54;;;;;;;15.68;6.72;;;18.00;89.30;;;;;;10528848;28;19915;-31
2023/11/12 22:13:58;;;;;;;12.98;6.93;;;18.00;88.70;;;;;;10533555;28;20511;-36
2023/11/12 22:18:59;;;;;;;16.90;7.03;;;18.00;88.60;;;;;;10526894;28;20071;-33
2023/11/12 22:24:01;;;;;;;13.70;5.97;;;18.00;88.50;;;;;;10528105;28;20609;-29
2023/11/12 22:29:06;;;;;;;15.07;7.47;;;18.00;88.50;;;;;;10526163;28;20471;-40
2023/11/12 22:34:08;;;;;;;18.27;7.05;;;18.00;88.40;;;;;;10526386;28;20393;-33
2023/11/12 22:39:11;;;;;;;17.77;6.93;;;17.90;88.40;;;;;;10521463;28;20044;-32
2023/11/12 22:44:14;;;;;;;16.77;6.55;;;17.90;88.30;;;;;;10518330;28;20058;-48
2023/11/12 22:49:18;;;;;;;12.25;6.32;;;17.90;88.20;;;;;;10518258;28;20736;-32
2023/11/12 22:54:20;;;;;;;12.70;7.05;;;17.90;88.20;;;;;;10523436;28;20109;-38
2023/11/12 22:59:24;;;;;;;15.20;7.03;;;17.90;88.20;;;;;;10522639;28;20044;-36
2023/11/12 23:04:26;;;;;;;12.02;6.32;;;17.90;88.20;;;;;;10523934;28;20052;-37
2023/11/12 23:09:30;;;;;;;14.37;6.47;;;17.90;88.10;;;;;;10522013;28;20603;-32
2023/11/12 23:14:35;;;;;;;9.98;5.68;;;17.90;87.90;;;;;;10523375;28;20071;-31
2023/11/12 23:19:36;;;;;;;13.15;5.95;;;17.90;87.90;;;;;;10521630;28;20455;-33
2023/11/12 23:24:38;;;;;;;11.80;6.43;;;17.80;88.00;;;;;;10524025;28;20039;-31
2023/11/12 23:29:46;;;;;;;12.57;6.00;;;17.90;88.10;;;;;;10522521;28;20048;-33
2023/11/12 23:34:48;;;;;;;12.13;5.68;;;17.90;88.00;;;;;;10516376;28;20443;-36
2023/11/12 23:39:49;;;;;;;11.90;5.53;;;17.90;88.00;;;;;;10518081;28;20751;-36
2023/11/12 23:44:53;;;;;;;11.17;5.60;;;17.90;88.00;;;;;;10519552;28;20494;-33
2023/11/12 23:49:54;;;;;;;10.10;5.68;;;17.90;88.50;;;;;;10524695;28;20063;-31
2023/11/12 23:54:56;;;;;;;9.67;5.43;;;17.90;88.00;;;;;;10520150;28;20044;-36
